Time;durP1;ratioP1;P1;durP2;ratioP2;P2;SDS_P1;SDS_P2;PMS_P1;PMS_P2;Temp;Humidity;BMP_temperature;BMP_pressure;BME280_temperature;BME280_humidity;BME280_pressure;Samples;Min_cycle;Max_cycle;Signal;HPM_P1;HPM_P2
2020/12/04 00:01:25;;;;;;;5.88;3.88;;;2.50;99.90;;;;;;5028513;28;20122;-66
2020/12/04 00:03:51;;;;;;;4.65;3.42;;;2.50;99.90;;;;;;5036835;28;20095;-66
2020/12/04 00:06:18;;;;;;;6.07;4.07;;;2.50;99.90;;;;;;5028799;28;20128;-68
2020/12/04 00:08:44;;;;;;;9.95;4.90;;;2.60;99.90;;;;;;5030944;28;20378;-67
2020/12/04 00:11:11;;;;;;;5.93;3.90;;;2.60;99.90;;;;;;5030865;28;20106;-72
2020/12/04 00:13:38;;;;;;;5.75;4.13;;;2.60;99.90;;;;;;5028176;28;21505;-68
2020/12/04 00:16:04;;;;;;;7.60;5.35;;;2.60;99.90;;;;;;5026221;28;20751;-69
2020/12/04 00:18:31;;;;;;;8.02;4.75;;;2.70;99.90;;;;;;5025413;28;20408;-69
2020/12/04 00:20:57;;;;;;;5.53;4.93;;;2.60;99.90;;;;;;5028664;28;20067;-75
2020/12/04 00:23:24;;;;;;;7.53;4.97;;;2.70;99.90;;;;;;5029123;28;20076;-70
2020/12/04 00:25:50;;;;;;;6.20;5.20;;;2.70;99.90;;;;;;5027070;28;20200;-67
2020/12/04 00:28:17;;;;;;;7.55;4.70;;;2.70;99.90;;;;;;5030942;28;20050;-73
2020/12/04 00:30:43;;;;;;;8.68;5.82;;;2.70;99.90;;;;;;5032152;28;20139;-75
2020/12/04 00:33:09;;;;;;;7.30;5.30;;;2.70;99.90;;;;;;5025628;28;20089;-66
2020/12/04 00:35:36;;;;;;;7.22;5.55;;;2.60;99.90;;;;;;5028465;28;20049;-75
2020/12/04 00:38:03;;;;;;;6.50;5.50;;;2.70;99.90;;;;;;5029929;28;20063;-70
2020/12/04 00:40:30;;;;;;;8.07;6.22;;;2.70;99.90;;;;;;5030244;28;20041;-65
2020/12/04 00:42:57;;;;;;;9.40;5.75;;;2.70;99.90;;;;;;5030872;28;20493;-72
2020/12/04 00:45:24;;;;;;;8.02;5.32;;;2.70;99.90;;;;;;5032609;28;20062;-70
2020/12/04 00:47:50;;;;;;;8.32;5.95;;;2.70;99.90;;;;;;5034440;28;20177;-70
2020/12/04 00:50:18;;;;;;;9.05;7.07;;;2.70;99.90;;;;;;5029675;28;20041;-70
2020/12/04 00:52:44;;;;;;;8.98;6.25;;;2.70;99.90;;;;;;5026624;28;20695;-73
2020/12/04 00:55:11;;;;;;;9.80;6.40;;;2.70;99.90;;;;;;5034492;28;20061;-70
2020/12/04 00:57:38;;;;;;;9.25;7.05;;;2.80;99.90;;;;;;5060016;28;20108;-65
2020/12/04 01:00:05;;;;;;;12.52;6.95;;;2.80;99.90;;;;;;5033030;28;20120;-66
2020/12/04 01:02:32;;;;;;;11.68;7.35;;;2.80;99.90;;;;;;5035269;28;20076;-71
2020/12/04 01:04:58;;;;;;;11.05;8.20;;;2.80;99.90;;;;;;5030215;28;20042;-67
2020/12/04 01:07:25;;;;;;;10.13;7.78;;;2.80;99.90;;;;;;5036034;28;20067;-77
2020/12/04 01:09:51;;;;;;;10.75;8.20;;;2.80;99.90;;;;;;5022672;28;20076;-71
2020/12/04 01:12:18;;;;;;;11.10;7.38;;;2.80;99.90;;;;;;5030565;28;20086;-72
2020/12/04 01:14:44;;;;;;;14.25;7.93;;;2.90;99.90;;;;;;5027897;28;20156;-69
2020/12/04 01:17:11;;;;;;;11.70;7.93;;;2.80;99.90;;;;;;5027066;28;20041;-76
2020/12/04 01:19:37;;;;;;;9.93;7.90;;;2.90;99.90;;;;;;5029697;28;20663;-72
2020/12/04 01:22:04;;;;;;;11.45;9.60;;;2.90;99.90;;;;;;5031703;28;20110;-70
2020/12/04 01:24:30;;;;;;;11.13;8.00;;;2.90;99.90;;;;;;5026834;28;20077;-75
2020/12/04 01:26:57;;;;;;;13.02;8.70;;;2.90;99.90;;;;;;5022681;28;20536;-70
2020/12/04 01:29:23;;;;;;;14.00;9.77;;;2.90;99.90;;;;;;5023027;28;20107;-74
2020/12/04 01:31:50;;;;;;;15.70;10.75;;;3.00;99.90;;;;;;5031459;28;20091;-63
2020/12/04 01:34:16;;;;;;;14.73;8.70;;;3.00;99.90;;;;;;5030181;28;20095;-68
2020/12/04 01:36:43;;;;;;;10.90;8.70;;;3.00;99.90;;;;;;5025495;28;20045;-69
2020/12/04 01:39:09;;;;;;;13.90;11.40;;;3.00;99.90;;;;;;5030540;28;20077;-68
2020/12/04 01:41:36;;;;;;;16.70;10.80;;;3.00;99.90;;;;;;5024540;28;20111;-70
2020/12/04 01:44:04;;;;;;;14.75;9.80;;;3.00;99.90;;;;;;5032053;28;20069;-74
2020/12/04 01:46:32;;;;;;;14.45;10.65;;;3.10;99.90;;;;;;5034689;28;20139;-68
2020/12/04 01:48:58;;;;;;;16.23;11.23;;;3.10;99.90;;;;;;5026347;28;20806;-73
2020/12/04 01:51:27;;;;;;;20.55;11.90;;;3.20;99.90;;;;;;5031809;28;20045;-69
2020/12/04 01:53:53;;;;;;;17.45;10.90;;;3.20;99.90;;;;;;5025915;28;20135;-70
2020/12/04 01:56:20;;;;;;;15.18;12.05;;;3.10;99.90;;;;;;5026989;28;20770;-69
2020/12/04 01:58:46;;;;;;;19.50;11.90;;;3.20;99.90;;;;;;5024985;28;20182;-77
2020/12/04 02:01:16;;;;;;;19.20;13.23;;;3.20;99.90;;;;;;5024549;28;20101;-68
2020/12/04 02:03:43;;;;;;;20.63;13.13;;;3.20;99.90;;;;;;5038908;28;20071;-74
2020/12/04 02:06:21;;;;;;;18.48;12.05;;;3.20;99.90;;;;;;5021822;28;20127;-68
2020/12/04 02:09:04;;;;;;;17.00;11.82;;;3.20;99.90;;;;;;5026047;28;20045;-69
2020/12/04 02:11:32;;;;;;;16.48;11.70;;;3.20;99.90;;;;;;5031818;28;20401;-72
2020/12/04 02:13:59;;;;;;;16.55;12.00;;;3.20;99.90;;;;;;5031390;28;20057;-69
2020/12/04 02:16:25;;;;;;;13.27;10.55;;;3.20;99.90;;;;;;5028394;28;20091;-71
2020/12/04 02:18:52;;;;;;;16.65;10.88;;;3.20;99.90;;;;;;5030185;28;20045;-77
2020/12/04 02:21:19;;;;;;;13.25;10.75;;;3.20;99.90;;;;;;5023873;28;20049;-69
2020/12/04 02:23:47;;;;;;;14.85;10.20;;;3.30;99.90;;;;;;5025755;28;20122;-76
2020/12/04 02:26:17;;;;;;;15.57;11.23;;;3.30;99.90;;;;;;5025850;28;20049;-71
2020/12/04 02:28:43;;;;;;;16.65;12.13;;;3.30;99.90;;;;;;5021047;28;20052;-72
2020/12/04 02:31:10;;;;;;;18.20;12.40;;;3.30;99.90;;;;;;5026411;28;20485;-69
2020/12/04 02:33:36;;;;;;;20.63;12.38;;;3.30;99.90;;;;;;5030203;28;20060;-70
2020/12/04 02:36:04;;;;;;;22.13;13.25;;;3.30;99.90;;;;;;5025469;28;20053;-77
2020/12/04 02:38:31;;;;;;;17.60;11.60;;;3.30;99.90;;;;;;5033218;28;20054;-71
2020/12/04 02:40:57;;;;;;;19.52;12.68;;;3.30;99.90;;;;;;5029228;28;20041;-67
2020/12/04 02:43:24;;;;;;;18.20;13.13;;;3.30;99.90;;;;;;5029422;28;20052;-71
2020/12/04 02:45:50;;;;;;;22.58;13.18;;;3.30;99.90;;;;;;5032836;28;20049;-68
2020/12/04 02:48:17;;;;;;;16.00;12.85;;;3.30;99.90;;;;;;5027692;28;20137;-72
2020/12/04 02:50:43;;;;;;;18.05;13.63;;;3.30;99.90;;;;;;5027758;28;20095;-70
2020/12/04 02:53:10;;;;;;;25.20;15.52;;;3.40;99.90;;;;;;5025203;28;20132;-68
2020/12/04 02:55:37;;;;;;;21.77;15.45;;;3.40;99.90;;;;;;5025404;28;20103;-69
2020/12/04 02:58:03;;;;;;;17.70;13.98;;;3.40;99.90;;;;;;5031817;28;20103;-75
2020/12/04 03:00:30;;;;;;;21.80;15.95;;;3.40;99.90;;;;;;5021382;28;20874;-69
2020/12/04 03:02:56;;;;;;;23.40;16.85;;;3.40;99.90;;;;;;5023027;28;20060;-68
2020/12/04 03:05:23;;;;;;;18.30;14.32;;;3.40;99.90;;;;;;5016750;28;20045;-71
2020/12/04 03:07:50;;;;;;;22.60;15.23;;;3.40;99.90;;;;;;5022631;28;20053;-72
2020/12/04 03:10:16;;;;;;;21.45;14.20;;;3.40;99.90;;;;;;5032551;28;20137;-79
2020/12/04 03:12:43;;;;;;;18.77;13.88;;;3.40;99.90;;;;;;5025954;28;20057;-70
2020/12/04 03:15:10;;;;;;;24.88;16.77;;;3.40;99.90;;;;;;5037416;28;20044;-76
2020/12/04 03:17:37;;;;;;;20.30;15.68;;;3.50;99.90;;;;;;5031342;28;20037;-67
2020/12/04 03:20:04;;;;;;;22.20;16.80;;;3.50;99.90;;;;;;5028318;28;20061;-74
2020/12/04 03:22:31;;;;;;;22.50;17.17;;;3.40;99.90;;;;;;5025857;28;20048;-68
2020/12/04 03:24:57;;;;;;;23.27;16.08;;;3.50;99.90;;;;;;5033739;28;20053;-71
2020/12/04 03:27:24;;;;;;;23.50;15.65;;;3.50;99.90;;;;;;5037011;28;20045;-72
2020/12/04 03:29:51;;;;;;;25.98;16.63;;;3.50;99.90;;;;;;5029257;28;20160;-71
2020/12/04 03:32:17;;;;;;;23.25;17.58;;;3.50;99.90;;;;;;5026763;28;20051;-68
2020/12/04 03:34:44;;;;;;;25.33;17.10;;;3.50;99.90;;;;;;5031875;28;20188;-77
2020/12/04 03:37:10;;;;;;;26.45;18.10;;;3.50;99.90;;;;;;5027458;28;20049;-70
2020/12/04 03:39:37;;;;;;;28.00;19.13;;;3.50;99.90;;;;;;5025590;28;20064;-78
2020/12/04 03:42:04;;;;;;;25.17;18.05;;;3.50;99.90;;;;;;5035721;28;20049;-71
2020/12/04 03:44:30;;;;;;;30.48;20.17;;;3.60;99.90;;;;;;5029050;28;20099;-72
2020/12/04 03:47:00;;;;;;;28.70;19.75;;;3.60;99.90;;;;;;5033127;28;20056;-70
2020/12/04 03:49:26;;;;;;;23.45;17.67;;;3.60;99.90;;;;;;5034938;28;20130;-68
2020/12/04 03:51:52;;;;;;;26.15;17.05;;;3.60;99.90;;;;;;5029032;28;20041;-72
2020/12/04 03:54:19;;;;;;;21.85;15.73;;;3.60;99.90;;;;;;5033937;28;20044;-67
2020/12/04 03:56:46;;;;;;;22.52;16.10;;;3.60;99.90;;;;;;5028072;28;20033;-69
2020/12/04 03:59:12;;;;;;;26.30;17.15;;;3.60;99.90;;;;;;5030682;28;20171;-67
2020/12/04 04:01:39;;;;;;;27.10;17.25;;;3.60;99.90;;;;;;5034232;28;20053;-77
2020/12/04 04:04:06;;;;;;;24.42;17.48;;;3.70;99.90;;;;;;5029675;28;20480;-76
2020/12/04 04:06:33;;;;;;;23.63;16.98;;;3.60;99.90;;;;;;5031821;28;20049;-72
2020/12/04 04:08:59;;;;;;;23.88;18.92;;;3.60;99.90;;;;;;5031070;28;20053;-69
2020/12/04 04:11:26;;;;;;;31.40;18.88;;;3.60;99.90;;;;;;5028281;28;20057;-71
2020/12/04 04:13:52;;;;;;;25.08;17.92;;;3.60;99.90;;;;;;5030364;28;20132;-66
2020/12/04 04:16:18;;;;;;;27.92;18.08;;;3.60;99.90;;;;;;5030704;28;20068;-74
2020/12/04 04:18:45;;;;;;;27.98;18.10;;;3.70;99.90;;;;;;5022163;28;20095;-70
2020/12/04 04:21:12;;;;;;;27.02;19.33;;;3.60;99.90;;;;;;5032727;28;20049;-73
2020/12/04 04:23:40;;;;;;;25.10;17.55;;;3.70;99.90;;;;;;5032321;28;20153;-75
2020/12/04 04:26:08;;;;;;;26.52;18.63;;;3.70;99.90;;;;;;5038035;28;20068;-71
2020/12/04 04:28:34;;;;;;;27.50;20.02;;;3.70;99.90;;;;;;5025263;28;20091;-68
2020/12/04 04:31:01;;;;;;;23.70;17.27;;;3.80;99.90;;;;;;5033006;28;20136;-75
2020/12/04 04:33:29;;;;;;;26.75;18.63;;;3.80;99.90;;;;;;5035282;28;20053;-69
2020/12/04 04:35:56;;;;;;;24.23;18.13;;;3.80;99.90;;;;;;5026725;28;20049;-68
2020/12/04 04:38:22;;;;;;;30.60;19.95;;;3.80;99.90;;;;;;5035608;28;20159;-69
2020/12/04 04:40:57;;;;;;;27.95;21.55;;;3.80;99.90;;;;;;5029053;28;20049;-69
2020/12/04 04:43:25;;;;;;;28.38;21.35;;;3.80;99.90;;;;;;5029923;28;20048;-77
2020/12/04 04:45:53;;;;;;;28.02;18.95;;;3.80;99.90;;;;;;5031848;28;20041;-77
2020/12/04 04:48:32;;;;;;;30.58;18.98;;;3.80;99.90;;;;;;5028945;28;20049;-69
2020/12/04 04:50:59;;;;;;;30.73;22.58;;;3.80;99.90;;;;;;5029640;28;20053;-70
2020/12/04 04:53:25;;;;;;;26.20;20.15;;;3.80;99.90;;;;;;5030018;28;20052;-69
2020/12/04 04:55:55;;;;;;;27.77;21.77;;;3.80;99.90;;;;;;5027553;28;20643;-75
2020/12/04 04:58:21;;;;;;;27.48;20.08;;;3.90;99.90;;;;;;5030418;28;20089;-70
2020/12/04 05:00:48;;;;;;;34.92;23.15;;;3.90;99.90;;;;;;5027860;28;20110;-70
2020/12/04 05:03:14;;;;;;;32.88;21.90;;;3.90;99.90;;;;;;5028860;28;20087;-69
2020/12/04 05:05:48;;;;;;;30.10;21.48;;;3.90;99.90;;;;;;5030318;28;20060;-67
2020/12/04 05:08:20;;;;;;;25.58;22.05;;;3.90;99.90;;;;;;5027177;28;20049;-72
2020/12/04 05:10:48;;;;;;;30.23;22.02;;;3.80;99.90;;;;;;5010698;28;20049;-71
2020/12/04 05:13:18;;;;;;;27.02;20.73;;;3.90;99.90;;;;;;5006810;28;20720;-69
2020/12/04 05:15:45;;;;;;;31.42;21.45;;;3.80;99.90;;;;;;5007116;28;20649;-69
2020/12/04 05:18:18;;;;;;;30.70;21.02;;;3.80;99.90;;;;;;5012614;28;20053;-76
2020/12/04 05:20:56;;;;;;;29.50;20.13;;;3.80;99.90;;;;;;5008509;28;20046;-68
2020/12/04 05:23:23;;;;;;;33.47;22.60;;;3.90;99.90;;;;;;5013555;28;20050;-71
2020/12/04 05:25:51;;;;;;;33.95;21.75;;;3.90;99.90;;;;;;5007653;28;20766;-68
2020/12/04 05:28:24;;;;;;;29.58;21.02;;;3.90;99.90;;;;;;5007666;28;20129;-73
2020/12/04 05:31:10;;;;;;;25.48;19.63;;;3.90;99.90;;;;;;5004319;28;20053;-68
2020/12/04 05:33:40;;;;;;;27.70;19.25;;;3.90;99.90;;;;;;5013123;28;20404;-67
2020/12/04 05:36:07;;;;;;;31.58;20.55;;;3.90;99.90;;;;;;5008251;28;20548;-70
2020/12/04 05:38:33;;;;;;;28.52;21.38;;;3.90;99.90;;;;;;5003042;28;20046;-70
2020/12/04 05:41:05;;;;;;;28.52;20.58;;;3.90;99.90;;;;;;5007953;28;20045;-78
2020/12/04 05:43:34;;;;;;;26.58;21.17;;;3.90;99.90;;;;;;5008288;28;20073;-77
2020/12/04 05:46:25;;;;;;;26.05;18.55;;;3.90;99.90;;;;;;5012855;28;20131;-70
2020/12/04 05:49:04;;;;;;;27.60;18.67;;;3.90;99.90;;;;;;5007087;28;20397;-73
2020/12/04 05:51:33;;;;;;;32.88;19.52;;;3.90;99.90;;;;;;5007467;28;20045;-65
2020/12/04 05:54:00;;;;;;;24.85;18.05;;;3.90;99.90;;;;;;5013171;28;20103;-68
2020/12/04 05:56:51;;;;;;;24.92;18.05;;;3.90;99.90;;;;;;5003222;28;20107;-72
2020/12/04 05:59:21;;;;;;;26.33;19.90;;;3.90;99.90;;;;;;5009026;28;20041;-77
2020/12/04 06:01:48;;;;;;;;;;;3.90;99.90;;;;;;5007865;28;20123;-72
2020/12/04 06:04:18;;;;;;;24.75;17.95;;;3.90;99.90;;;;;;5006173;28;20288;-72
2020/12/04 06:06:45;;;;;;;26.20;19.00;;;3.90;99.90;;;;;;5003910;28;20054;-77
2020/12/04 06:09:13;;;;;;;25.35;17.30;;;3.90;99.90;;;;;;5004550;28;20508;-69
2020/12/04 06:11:42;;;;;;;27.40;18.75;;;3.90;99.90;;;;;;5006813;28;21304;-74
2020/12/04 06:14:16;;;;;;;26.05;18.33;;;3.90;99.90;;;;;;5006309;28;20048;-70
2020/12/04 06:16:44;;;;;;;25.27;16.80;;;3.90;99.90;;;;;;5005093;28;20500;-67
2020/12/04 06:19:33;;;;;;;26.90;17.25;;;3.90;99.90;;;;;;5008685;28;20126;-77
2020/12/04 06:22:17;;;;;;;25.10;18.30;;;4.00;99.90;;;;;;5005021;28;20047;-77
2020/12/04 06:24:56;;;;;;;22.48;18.65;;;4.00;99.90;;;;;;5002875;28;20042;-75
2020/12/04 06:27:34;;;;;;;24.98;17.95;;;3.90;99.90;;;;;;5012507;28;20049;-70
2020/12/04 06:30:02;;;;;;;30.00;18.40;;;4.00;99.90;;;;;;5005021;28;20049;-77
2020/12/04 06:32:44;;;;;;;24.73;16.85;;;4.00;99.90;;;;;;5005974;28;20047;-73
2020/12/04 06:35:13;;;;;;;23.98;17.40;;;4.00;99.90;;;;;;5003980;28;20208;-70
2020/12/04 06:37:44;;;;;;;23.35;16.23;;;4.00;99.90;;;;;;5006793;28;20046;-72
2020/12/04 06:40:29;;;;;;;22.83;17.40;;;4.00;99.90;;;;;;5008897;28;20053;-69
2020/12/04 06:43:00;;;;;;;23.48;16.30;;;4.00;99.90;;;;;;4999866;28;20069;-69
2020/12/04 06:45:46;;;;;;;24.52;16.23;;;4.00;99.90;;;;;;5007086;28;20050;-69
2020/12/04 06:48:18;;;;;;;19.30;14.57;;;4.00;99.90;;;;;;5007188;28;20050;-77
2020/12/04 06:50:47;;;;;;;21.38;16.40;;;4.00;99.90;;;;;;5001211;28;20054;-68
2020/12/04 06:53:15;;;;;;;21.55;15.02;;;4.00;99.90;;;;;;5005738;28;20056;-72
2020/12/04 06:55:42;;;;;;;20.52;15.57;;;4.00;99.90;;;;;;4999337;28;20140;-69
2020/12/04 06:58:09;;;;;;;22.42;16.10;;;4.00;99.90;;;;;;5007070;28;20153;-73
2020/12/04 07:00:36;;;;;;;21.95;13.90;;;4.00;99.90;;;;;;5007635;28;20386;-69
2020/12/04 07:03:04;;;;;;;21.98;15.25;;;4.00;99.90;;;;;;5005045;28;20394;-73
2020/12/04 07:05:32;;;;;;;19.55;15.10;;;4.00;99.90;;;;;;5008876;28;20045;-67
2020/12/04 07:08:04;;;;;;;19.27;13.48;;;4.00;99.90;;;;;;5001339;28;20053;-78
2020/12/04 07:10:31;;;;;;;17.98;13.32;;;4.00;99.90;;;;;;5008232;28;20045;-70
2020/12/04 07:12:59;;;;;;;17.67;12.10;;;4.00;99.90;;;;;;5005641;28;20076;-73
2020/12/04 07:15:28;;;;;;;17.23;12.30;;;4.00;99.90;;;;;;5004403;28;20057;-74
2020/12/04 07:17:56;;;;;;;14.93;11.30;;;4.00;99.90;;;;;;5007755;28;20042;-72
2020/12/04 07:20:36;;;;;;;16.23;12.77;;;4.00;99.90;;;;;;5005009;28;20129;-68
2020/12/04 07:23:07;;;;;;;20.75;11.55;;;4.00;99.90;;;;;;5005868;28;20053;-70
2020/12/04 07:25:36;;;;;;;16.13;11.48;;;4.00;99.90;;;;;;5005624;28;20041;-70
2020/12/04 07:28:03;;;;;;;14.00;10.32;;;4.00;99.90;;;;;;5031767;28;20699;-73
2020/12/04 07:30:30;;;;;;;15.50;10.55;;;4.00;99.90;;;;;;5001892;28;20507;-69
2020/12/04 07:32:56;;;;;;;14.55;9.57;;;4.00;99.90;;;;;;4999596;28;20045;-68
2020/12/04 07:35:23;;;;;;;13.90;11.43;;;4.00;99.90;;;;;;5008178;28;20563;-67
2020/12/04 07:37:50;;;;;;;17.33;11.27;;;3.90;99.90;;;;;;5002813;28;20045;-76
2020/12/04 07:40:18;;;;;;;12.10;8.85;;;4.00;99.90;;;;;;5008973;28;20052;-72
2020/12/04 07:42:44;;;;;;;11.98;9.15;;;4.00;99.90;;;;;;5001432;28;20081;-76
2020/12/04 07:45:17;;;;;;;13.52;10.48;;;4.00;99.90;;;;;;5005083;28;20392;-69
2020/12/04 07:47:44;;;;;;;13.90;9.85;;;4.00;99.90;;;;;;5000316;28;20487;-77
2020/12/04 07:50:13;;;;;;;15.27;9.82;;;4.00;99.90;;;;;;5003610;28;20172;-68
2020/12/04 07:52:50;;;;;;;13.63;10.57;;;4.00;99.90;;;;;;5002747;28;20053;-75
2020/12/04 07:55:21;;;;;;;11.90;9.20;;;4.00;99.90;;;;;;5005852;28;20038;-71
2020/12/04 07:57:54;;;;;;;13.15;8.38;;;4.00;99.90;;;;;;5007702;28;20053;-69
2020/12/04 08:00:20;;;;;;;15.13;10.70;;;4.00;99.90;;;;;;5011690;28;20045;-73
2020/12/04 08:02:47;;;;;;;13.85;9.07;;;4.00;99.90;;;;;;5002414;28;20180;-69
2020/12/04 08:05:21;;;;;;;17.23;9.35;;;4.00;99.90;;;;;;5011733;28;20045;-78
2020/12/04 08:07:53;;;;;;;13.32;9.55;;;4.00;99.90;;;;;;5005191;28;20083;-70
2020/12/04 08:10:21;;;;;;;16.35;8.75;;;4.00;99.90;;;;;;5013002;28;20041;-69
2020/12/04 08:12:49;;;;;;;15.77;9.15;;;4.00;99.90;;;;;;5008023;28;20127;-71
2020/12/04 08:15:19;;;;;;;15.43;9.23;;;4.00;99.90;;;;;;5010524;28;20052;-69
2020/12/04 08:17:45;;;;;;;12.93;9.87;;;4.00;99.90;;;;;;5013294;28;20052;-75
2020/12/04 08:20:17;;;;;;;16.23;11.15;;;4.00;99.90;;;;;;5008871;28;20042;-78
2020/12/04 08:22:50;;;;;;;19.10;12.20;;;4.00;99.90;;;;;;5004502;28;20071;-77
2020/12/04 08:25:28;;;;;;;17.98;11.35;;;4.10;99.90;;;;;;5015823;28;20790;-65
2020/12/04 08:27:56;;;;;;;17.92;11.82;;;4.10;99.90;;;;;;5029819;28;20057;-68
2020/12/04 08:30:25;;;;;;;17.10;11.52;;;4.10;99.90;;;;;;5034470;28;20064;-76
2020/12/04 08:32:54;;;;;;;17.38;12.68;;;4.10;99.90;;;;;;5021251;28;20163;-69
2020/12/04 08:35:33;;;;;;;16.27;13.10;;;4.10;99.90;;;;;;5027536;28;20045;-72
2020/12/04 08:38:13;;;;;;;19.88;13.57;;;4.10;99.90;;;;;;5030183;28;20592;-70
2020/12/04 08:40:47;;;;;;;19.25;14.57;;;4.10;99.90;;;;;;5021773;28;20079;-71
2020/12/04 08:43:15;;;;;;;26.17;15.98;;;4.10;99.90;;;;;;5033147;28;20044;-77
2020/12/04 08:45:43;;;;;;;18.70;14.50;;;4.20;99.90;;;;;;5023777;28;20473;-75
2020/12/04 08:48:21;;;;;;;20.00;13.55;;;4.20;99.90;;;;;;5025395;28;20099;-68
2020/12/04 08:50:53;;;;;;;21.25;16.13;;;4.20;99.90;;;;;;5027884;28;20053;-70
2020/12/04 08:53:21;;;;;;;20.00;14.80;;;4.20;99.90;;;;;;5025729;28;20129;-71
2020/12/04 08:55:50;;;;;;;23.95;16.02;;;4.20;99.90;;;;;;5029627;28;20126;-67
2020/12/04 08:58:18;;;;;;;19.23;15.43;;;4.20;99.90;;;;;;5011029;28;20049;-72
2020/12/04 09:00:45;;;;;;;25.95;15.85;;;4.20;99.90;;;;;;5007078;28;20050;-73
2020/12/04 09:03:13;;;;;;;24.10;16.50;;;4.20;99.90;;;;;;5005804;28;20148;-77
2020/12/04 09:05:40;;;;;;;26.25;17.27;;;4.30;99.90;;;;;;5006039;28;20057;-76
2020/12/04 09:08:07;;;;;;;24.58;18.85;;;4.30;99.90;;;;;;5006965;28;20053;-69
2020/12/04 09:10:35;;;;;;;24.83;16.75;;;4.30;99.90;;;;;;5003789;28;20257;-68
2020/12/04 09:13:02;;;;;;;22.90;16.13;;;4.30;99.90;;;;;;5009460;28;20054;-77
2020/12/04 09:15:29;;;;;;;25.27;17.88;;;4.20;99.90;;;;;;5004974;28;20053;-70
2020/12/04 09:17:56;;;;;;;30.42;20.65;;;4.30;99.90;;;;;;5010108;28;20128;-75
2020/12/04 09:20:24;;;;;;;27.95;20.10;;;4.30;99.90;;;;;;5008094;28;20042;-71
2020/12/04 09:22:51;;;;;;;27.92;18.63;;;4.30;99.90;;;;;;5004063;28;20134;-71
2020/12/04 09:25:19;;;;;;;30.33;19.92;;;4.30;99.90;;;;;;5006976;28;20140;-75
2020/12/04 09:27:48;;;;;;;30.55;21.27;;;4.30;99.90;;;;;;5000782;28;20093;-78
2020/12/04 09:30:16;;;;;;;30.38;20.30;;;4.30;99.90;;;;;;5010203;28;20034;-69
2020/12/04 09:32:44;;;;;;;32.75;19.33;;;4.30;99.90;;;;;;5002381;28;20050;-67
2020/12/04 09:35:11;;;;;;;28.73;19.77;;;4.30;99.90;;;;;;5009538;28;20064;-68
2020/12/04 09:37:39;;;;;;;26.27;18.52;;;4.40;99.90;;;;;;5006398;28;20068;-68
2020/12/04 09:40:07;;;;;;;34.03;21.42;;;4.40;99.90;;;;;;5004674;28;20115;-73
2020/12/04 09:42:33;;;;;;;33.40;20.30;;;4.40;99.90;;;;;;5009264;28;20493;-68
2020/12/04 09:45:00;;;;;;;28.52;19.30;;;4.40;99.90;;;;;;5002404;28;20129;-72
2020/12/04 09:47:30;;;;;;;34.05;22.90;;;4.40;99.90;;;;;;5007728;28;20183;-68
2020/12/04 09:49:57;;;;;;;29.35;20.45;;;4.40;99.90;;;;;;5011620;28;20068;-68
2020/12/04 09:52:24;;;;;;;29.48;19.33;;;4.40;99.90;;;;;;5007975;28;20060;-74
2020/12/04 09:54:50;;;;;;;29.35;19.77;;;4.40;99.90;;;;;;5005395;28;20069;-74
2020/12/04 09:57:17;;;;;;;31.90;20.48;;;4.40;99.90;;;;;;5000299;28;20416;-77
2020/12/04 09:59:44;;;;;;;30.08;20.25;;;4.40;99.90;;;;;;5010125;28;20049;-74
2020/12/04 10:02:11;;;;;;;30.60;18.17;;;4.40;99.90;;;;;;5006306;28;20144;-67
2020/12/04 10:04:40;;;;;;;28.15;17.00;;;4.40;99.90;;;;;;5009648;28;20095;-67
2020/12/04 10:07:08;;;;;;;25.65;17.83;;;4.50;99.90;;;;;;5007935;28;20064;-75
2020/12/04 10:09:36;;;;;;;26.92;17.73;;;4.50;99.90;;;;;;5009616;28;20740;-72
2020/12/04 10:12:04;;;;;;;33.20;19.27;;;4.50;99.90;;;;;;5010752;28;20529;-71
2020/12/04 10:14:33;;;;;;;29.80;18.58;;;4.50;99.90;;;;;;5001850;28;20471;-69
2020/12/04 10:17:00;;;;;;;32.88;18.73;;;4.50;99.90;;;;;;5004399;28;20053;-70
2020/12/04 10:19:26;;;;;;;30.45;20.92;;;4.50;99.90;;;;;;5004411;28;20196;-70
2020/12/04 10:21:54;;;;;;;26.45;19.55;;;4.50;99.90;;;;;;5004736;28;20055;-69
2020/12/04 10:24:20;;;;;;;30.98;18.27;;;4.50;99.90;;;;;;5004507;28;20045;-67
2020/12/04 10:26:48;;;;;;;31.70;20.17;;;4.50;99.90;;;;;;5001792;28;20060;-75
2020/12/04 10:29:17;;;;;;;35.10;21.73;;;4.50;99.90;;;;;;5006124;28;20044;-77
2020/12/04 10:31:44;;;;;;;31.67;20.88;;;4.50;99.90;;;;;;5000894;28;20052;-69
2020/12/04 10:34:11;;;;;;;29.10;18.83;;;4.50;99.90;;;;;;5010133;28;20056;-75
2020/12/04 10:36:39;;;;;;;30.17;19.00;;;4.50;99.90;;;;;;5004500;28;20661;-69
2020/12/04 10:39:08;;;;;;;33.40;20.33;;;4.50;99.90;;;;;;5004048;28;20287;-72
2020/12/04 10:41:37;;;;;;;29.25;19.65;;;4.50;99.90;;;;;;5006409;28;20999;-76
2020/12/04 10:44:06;;;;;;;30.45;19.40;;;4.50;99.90;;;;;;5004617;28;20072;-77
2020/12/04 10:46:34;;;;;;;29.75;18.83;;;4.50;99.90;;;;;;5007696;28;20050;-68
2020/12/04 10:49:00;;;;;;;27.92;19.38;;;4.50;99.90;;;;;;5004223;28;20080;-71
2020/12/04 10:51:27;;;;;;;30.42;19.88;;;4.50;99.90;;;;;;5014285;28;20647;-71
2020/12/04 10:53:53;;;;;;;23.08;17.75;;;4.50;99.90;;;;;;5006480;28;20057;-70
2020/12/04 10:56:21;;;;;;;29.92;18.00;;;4.50;99.90;;;;;;5003586;28;20053;-71
2020/12/04 10:58:48;;;;;;;30.02;17.80;;;4.50;99.90;;;;;;5008237;28;20191;-72
2020/12/04 11:01:21;;;;;;;27.73;19.35;;;4.50;99.90;;;;;;5004377;28;20659;-67
2020/12/04 11:06:21;;;;;;;27.60;16.13;;;4.50;99.90;;;;;;5004960;28;20049;-66
2020/12/04 11:08:49;;;;;;;25.17;16.77;;;4.50;99.90;;;;;;5010001;28;20144;-73
2020/12/04 11:11:16;;;;;;;28.48;15.30;;;4.50;99.90;;;;;;5004570;28;20053;-68
2020/12/04 11:13:47;;;;;;;25.02;16.33;;;4.50;99.90;;;;;;5000026;28;20050;-76
2020/12/04 11:16:14;;;;;;;19.52;13.82;;;4.50;99.90;;;;;;5004718;28;20041;-71
2020/12/04 11:18:41;;;;;;;22.67;14.75;;;4.50;99.90;;;;;;5002455;28;20042;-70
2020/12/04 11:21:08;;;;;;;25.48;14.40;;;4.40;99.90;;;;;;5005202;28;20172;-67
2020/12/04 11:23:36;;;;;;;20.67;13.60;;;4.40;99.90;;;;;;5005651;28;21040;-70
2020/12/04 11:26:03;;;;;;;20.95;13.50;;;4.40;99.90;;;;;;4990396;28;21276;-73
2020/12/04 11:28:34;;;;;;;21.17;15.13;;;4.40;99.90;;;;;;5002142;28;20060;-75
2020/12/04 11:31:01;;;;;;;18.30;13.07;;;4.40;99.90;;;;;;5001089;28;20049;-71
2020/12/04 11:33:28;;;;;;;21.70;14.75;;;4.40;99.90;;;;;;5010208;28;20041;-70
2020/12/04 11:35:56;;;;;;;18.45;13.23;;;4.40;99.90;;;;;;5001226;28;20091;-71
2020/12/04 11:38:23;;;;;;;16.08;12.82;;;4.40;99.90;;;;;;5005313;28;20997;-70
2020/12/04 11:40:51;;;;;;;32.08;14.10;;;4.30;99.90;;;;;;5007096;28;20049;-72
2020/12/04 11:43:17;;;;;;;24.20;15.18;;;4.30;99.90;;;;;;5004404;28;20438;-69
2020/12/04 11:45:44;;;;;;;25.40;15.38;;;4.30;99.90;;;;;;5003792;28;20068;-68
2020/12/04 11:48:10;;;;;;;21.58;14.45;;;4.40;99.90;;;;;;5007161;28;20056;-74
2020/12/04 11:50:37;;;;;;;21.13;14.85;;;4.30;99.90;;;;;;5010259;28;20068;-70
2020/12/04 11:53:03;;;;;;;22.42;14.02;;;4.30;99.90;;;;;;5004048;28;20200;-69
2020/12/04 11:55:30;;;;;;;23.17;16.27;;;4.30;99.90;;;;;;5009680;28;20049;-68
2020/12/04 11:57:57;;;;;;;21.90;15.65;;;4.30;99.90;;;;;;5008193;28;20127;-68
2020/12/04 12:00:23;;;;;;;22.30;16.05;;;4.40;99.90;;;;;;5010649;28;20147;-74
2020/12/04 12:02:50;;;;;;;29.75;16.55;;;4.40;99.90;;;;;;5005472;28;20041;-68
2020/12/04 12:05:16;;;;;;;27.45;16.52;;;4.40;99.90;;;;;;5004476;28;20073;-74
2020/12/04 12:07:43;;;;;;;27.63;18.45;;;4.40;99.90;;;;;;5007913;28;20049;-68
2020/12/04 12:10:10;;;;;;;29.48;17.98;;;4.40;99.90;;;;;;5005262;28;20097;-74
2020/12/04 12:12:37;;;;;;;24.00;18.52;;;4.40;99.90;;;;;;5009077;28;20053;-68
2020/12/04 12:15:04;;;;;;;31.13;19.70;;;4.40;99.90;;;;;;5006881;28;20489;-75
2020/12/04 12:17:31;;;;;;;36.40;22.92;;;4.40;99.90;;;;;;5001650;28;20037;-74
2020/12/04 12:19:58;;;;;;;28.15;18.45;;;4.40;99.90;;;;;;5004635;28;20053;-75
2020/12/04 12:22:25;;;;;;;35.95;19.83;;;4.40;99.90;;;;;;5004339;28;20042;-72
2020/12/04 12:24:51;;;;;;;28.90;20.20;;;4.40;99.90;;;;;;5006187;28;20041;-66
2020/12/04 12:27:18;;;;;;;27.73;18.10;;;4.40;99.90;;;;;;5009748;28;20132;-75
2020/12/04 12:29:45;;;;;;;29.83;18.33;;;4.40;99.90;;;;;;5011303;28;20135;-66
2020/12/04 12:32:12;;;;;;;31.25;18.42;;;4.40;99.90;;;;;;4998777;28;20501;-69
2020/12/04 12:37:24;;;;;;;26.58;19.38;;;4.40;99.90;;;;;;5003802;28;20048;-77
2020/12/04 12:39:50;;;;;;;21.92;15.95;;;4.40;99.90;;;;;;5004252;28;20053;-71
2020/12/04 12:42:18;;;;;;;24.63;18.08;;;4.40;99.90;;;;;;5004313;28;20497;-71
2020/12/04 12:44:46;;;;;;;25.15;17.08;;;4.40;99.90;;;;;;5004483;28;20148;-71
2020/12/04 12:47:14;;;;;;;26.00;16.52;;;4.30;99.90;;;;;;5012067;28;20726;-70
2020/12/04 12:49:41;;;;;;;18.35;13.82;;;4.40;99.90;;;;;;5002402;28;20056;-76
2020/12/04 12:52:08;;;;;;;20.95;14.40;;;4.40;99.90;;;;;;5006697;28;20755;-73